createdAt,value
2022-10-01T00:00:44.532Z,0
2022-10-01T00:01:44.523Z,0
2022-10-01T00:02:44.518Z,0
2022-10-01T00:03:44.502Z,0
2022-10-01T00:04:44.496Z,0
2022-10-01T00:05:44.483Z,0
2022-10-01T00:06:44.471Z,0
2022-10-01T00:07:44.467Z,0
2022-10-01T00:08:44.450Z,0
2022-10-01T00:09:44.437Z,0
2022-10-01T00:10:44.426Z,0
2022-10-01T00:11:44.464Z,0
2022-10-01T00:12:44.403Z,0
2022-10-01T00:13:44.417Z,0
2022-10-01T00:14:44.384Z,0
2022-10-01T00:15:44.369Z,0
2022-10-01T00:16:44.362Z,0
2022-10-01T00:17:44.369Z,0
2022-10-01T00:18:44.337Z,0
2022-10-01T00:19:44.329Z,0
2022-10-01T00:20:44.322Z,0
2022-10-01T00:21:44.305Z,0
2022-10-01T00:22:44.302Z,0
2022-10-01T00:23:44.282Z,0
2022-10-01T00:24:44.276Z,0
2022-10-01T00:25:44.263Z,0
2022-10-01T00:26:44.268Z,0
2022-10-01T00:27:44.244Z,0
2022-10-01T00:28:44.254Z,0
2022-10-01T00:29:44.220Z,0
2022-10-01T00:30:44.213Z,0
2022-10-01T00:31:44.201Z,0
2022-10-01T00:32:44.193Z,0
2022-10-01T00:33:44.175Z,0
2022-10-01T00:34:44.169Z,0
2022-10-01T00:35:44.160Z,0
2022-10-01T00:36:44.152Z,0
2022-10-01T00:37:44.135Z,0
2022-10-01T00:38:44.128Z,0
2022-10-01T00:39:44.114Z,0
2022-10-01T00:40:44.110Z,0
2022-10-01T00:41:44.099Z,0
2022-10-01T00:42:44.088Z,0
2022-10-01T00:43:44.078Z,0
2022-10-01T00:44:44.067Z,0
2022-10-01T00:45:44.057Z,0
2022-10-01T00:46:44.046Z,0
2022-10-01T00:47:44.062Z,0
2022-10-01T00:48:44.024Z,0
2022-10-01T00:49:44.016Z,0
2022-10-01T00:50:44.000Z,0
2022-10-01T00:51:43.998Z,0
2022-10-01T00:52:43.984Z,0
2022-10-01T00:53:43.968Z,0
2022-10-01T00:54:43.969Z,0
2022-10-01T00:55:43.952Z,0
2022-10-01T00:56:43.937Z,0
2022-10-01T00:57:43.932Z,0
2022-10-01T00:58:43.916Z,0
2022-10-01T00:59:43.915Z,0
2022-10-01T01:00:43.926Z,0
2022-10-01T01:01:43.900Z,0
2022-10-01T01:02:43.876Z,0
2022-10-01T01:03:43.867Z,0
2022-10-01T01:04:43.854Z,0
2022-10-01T01:05:43.846Z,0
2022-10-01T01:06:43.870Z,0
2022-10-01T01:07:43.855Z,0
2022-10-01T01:08:43.811Z,0
2022-10-01T01:09:43.837Z,0
2022-10-01T01:10:43.793Z,0
2022-10-01T01:11:43.777Z,0
2022-10-01T01:12:43.768Z,0
2022-10-01T01:13:43.757Z,0
2022-10-01T01:14:43.745Z,0
2022-10-01T01:15:43.738Z,0
2022-10-01T01:16:43.726Z,0
2022-10-01T01:17:43.713Z,0
2022-10-01T01:18:43.702Z,0
2022-10-01T01:19:43.694Z,0
2022-10-01T01:20:43.685Z,0
2022-10-01T01:21:43.668Z,0
2022-10-01T01:22:43.661Z,0
2022-10-01T01:23:43.647Z,0
2022-10-01T01:24:43.636Z,0
2022-10-01T01:25:43.633Z,0
2022-10-01T01:26:43.624Z,0
2022-10-01T01:27:43.608Z,0
2022-10-01T01:28:43.592Z,0
2022-10-01T01:29:43.586Z,0
2022-10-01T01:30:43.574Z,0
2022-10-01T01:31:43.573Z,0
2022-10-01T01:32:43.565Z,0
2022-10-01T01:33:43.542Z,0
2022-10-01T01:34:43.538Z,0
2022-10-01T01:35:43.526Z,0
2022-10-01T01:36:43.523Z,0
2022-10-01T01:37:43.503Z,0
2022-10-01T01:38:43.500Z,0
2022-10-01T01:39:43.480Z,0
2022-10-01T01:40:43.468Z,0
2022-10-01T01:41:43.459Z,0
2022-10-01T01:42:43.448Z,0
2022-10-01T01:43:43.439Z,0
2022-10-01T01:44:43.431Z,0
2022-10-01T01:45:43.415Z,0
2022-10-01T01:46:43.410Z,0
2022-10-01T01:47:43.394Z,0
2022-10-01T01:48:43.387Z,0
2022-10-01T01:49:43.373Z,0
2022-10-01T01:50:43.364Z,0
2022-10-01T01:51:43.356Z,0
2022-10-01T01:52:43.342Z,0
2022-10-01T01:53:43.334Z,0
2022-10-01T01:54:43.323Z,0
2022-10-01T01:55:43.310Z,0
2022-10-01T01:56:43.301Z,0
2022-10-01T01:57:43.293Z,0
2022-10-01T01:58:43.277Z,0
2022-10-01T01:59:43.267Z,0
2022-10-01T02:00:43.272Z,0
2022-10-01T02:01:43.248Z,0
2022-10-01T02:02:43.256Z,0
2022-10-01T02:03:43.230Z,0
2022-10-01T02:04:43.216Z,0
2022-10-01T02:05:43.209Z,0
2022-10-01T02:06:43.196Z,0
2022-10-01T02:07:43.215Z,0
2022-10-01T02:08:43.176Z,0
2022-10-01T02:09:43.165Z,0
2022-10-01T02:10:43.162Z,0
2022-10-01T02:11:43.147Z,0
2022-10-01T02:12:43.135Z,0
2022-10-01T02:13:43.120Z,0
2022-10-01T02:14:43.113Z,0
2022-10-01T02:15:43.112Z,0
2022-10-01T02:16:43.094Z,0
2022-10-01T02:17:43.095Z,0
2022-10-01T02:18:43.078Z,0
2022-10-01T02:19:43.060Z,0
2022-10-01T02:20:43.051Z,0
2022-10-01T02:21:43.040Z,0
2022-10-01T02:22:43.045Z,0
2022-10-01T02:23:43.022Z,0
2022-10-01T02:24:43.012Z,0
2022-10-01T02:25:43.001Z,0
2022-10-01T02:26:42.989Z,0
2022-10-01T02:27:42.974Z,0
2022-10-01T02:28:42.966Z,0
2022-10-01T02:29:42.961Z,0
2022-10-01T02:30:42.947Z,0
2022-10-01T02:31:42.937Z,0
2022-10-01T02:32:42.923Z,0
2022-10-01T02:33:42.923Z,0
2022-10-01T02:34:42.908Z,0
2022-10-01T02:35:42.893Z,0
2022-10-01T02:36:42.886Z,0
2022-10-01T02:37:42.873Z,0
2022-10-01T02:38:42.861Z,0
2022-10-01T02:39:42.848Z,0
2022-10-01T02:40:42.845Z,0
2022-10-01T02:41:42.861Z,0
2022-10-01T02:42:42.819Z,0
2022-10-01T02:43:42.808Z,0
2022-10-01T02:44:42.795Z,0
2022-10-01T02:45:42.786Z,0
2022-10-01T02:46:42.780Z,0
2022-10-01T02:47:42.766Z,0
2022-10-01T02:48:42.755Z,0
2022-10-01T02:49:42.743Z,0
2022-10-01T02:50:42.739Z,0
2022-10-01T02:51:42.723Z,0
2022-10-01T02:52:42.716Z,0
2022-10-01T02:53:42.705Z,0
2022-10-01T02:54:42.698Z,0
2022-10-01T02:55:42.688Z,0
2022-10-01T02:56:42.674Z,0
2022-10-01T02:57:42.664Z,0
2022-10-01T02:58:42.665Z,0
2022-10-01T02:59:42.640Z,0
2022-10-01T03:00:42.634Z,0
2022-10-01T03:01:42.670Z,0
2022-10-01T03:02:42.614Z,0
2022-10-01T03:03:42.596Z,0
2022-10-01T03:04:42.588Z,0
2022-10-01T03:05:42.577Z,0
2022-10-01T03:06:42.572Z,0
2022-10-01T03:07:42.555Z,0
2022-10-01T03:08:42.554Z,0
2022-10-01T03:09:42.534Z,0
2022-10-01T03:10:42.525Z,0
2022-10-01T03:11:42.513Z,0
2022-10-01T03:12:42.508Z,0
2022-10-01T03:13:42.499Z,0
2022-10-01T03:14:42.484Z,0
2022-10-01T03:15:42.479Z,0
2022-10-01T03:16:42.461Z,0
2022-10-01T03:17:42.456Z,0
2022-10-01T03:18:42.443Z,0
2022-10-01T03:19:42.460Z,0
2022-10-01T03:20:42.419Z,0
2022-10-01T03:21:42.408Z,0
2022-10-01T03:22:42.401Z,0
2022-10-01T03:23:42.388Z,0
2022-10-01T03:24:42.381Z,0
2022-10-01T03:25:42.367Z,0
2022-10-01T03:26:42.357Z,0
2022-10-01T03:27:42.346Z,0
2022-10-01T03:28:42.339Z,0
2022-10-01T03:29:42.325Z,0
2022-10-01T03:30:42.357Z,0
2022-10-01T03:31:42.312Z,0
2022-10-01T03:32:42.295Z,0
2022-10-01T03:33:42.285Z,0
2022-10-01T03:34:42.275Z,0
2022-10-01T03:35:42.261Z,0
2022-10-01T03:36:42.266Z,0
2022-10-01T03:37:42.243Z,0
2022-10-01T03:38:42.230Z,0
2022-10-01T03:39:42.221Z,0
2022-10-01T03:40:42.208Z,0
2022-10-01T03:41:42.200Z,0
2022-10-01T03:42:42.195Z,0
2022-10-01T03:43:42.180Z,0
2022-10-01T03:44:42.164Z,0
2022-10-01T03:45:42.157Z,0
2022-10-01T03:46:42.147Z,0
2022-10-01T03:47:42.134Z,0
2022-10-01T03:48:42.128Z,0
2022-10-01T03:49:42.114Z,0
2022-10-01T03:50:42.103Z,0
2022-10-01T03:51:42.095Z,0
2022-10-01T03:52:42.083Z,0
2022-10-01T03:53:42.071Z,0
2022-10-01T03:54:42.062Z,0
2022-10-01T03:55:42.055Z,0
2022-10-01T03:56:42.038Z,0
2022-10-01T03:57:42.031Z,0
2022-10-01T03:58:42.025Z,0
2022-10-01T03:59:42.010Z,0
2022-10-01T04:00:42.032Z,0
2022-10-01T04:01:42.064Z,0
2022-10-01T04:02:41.981Z,0
2022-10-01T04:03:41.992Z,0
2022-10-01T04:04:41.972Z,0
2022-10-01T04:05:41.966Z,0
2022-10-01T04:06:41.935Z,0
2022-10-01T04:07:41.926Z,0
2022-10-01T04:08:41.915Z,0
2022-10-01T04:09:41.911Z,0
2022-10-01T04:10:41.891Z,0
2022-10-01T04:11:41.881Z,0
2022-10-01T04:12:41.876Z,0
2022-10-01T04:13:41.856Z,0
2022-10-01T04:14:41.849Z,0
2022-10-01T04:15:41.838Z,0
2022-10-01T04:16:41.830Z,0
2022-10-01T04:17:41.818Z,0
2022-10-01T04:18:41.810Z,0
2022-10-01T04:19:41.798Z,0
2022-10-01T04:20:41.787Z,0
2022-10-01T04:21:41.773Z,0
2022-10-01T04:22:41.781Z,0
2022-10-01T04:23:41.754Z,0
2022-10-01T04:24:41.749Z,0
2022-10-01T04:25:41.736Z,0
2022-10-01T04:26:41.726Z,0
2022-10-01T04:27:41.711Z,0
2022-10-01T04:28:41.701Z,0
2022-10-01T04:29:41.692Z,0
2022-10-01T04:30:41.694Z,0
2022-10-01T04:31:41.669Z,0
2022-10-01T04:32:41.659Z,0
2022-10-01T04:33:41.648Z,0
2022-10-01T04:34:41.641Z,0
2022-10-01T04:35:41.627Z,0
2022-10-01T04:36:41.625Z,0
2022-10-01T04:37:41.604Z,0
2022-10-01T04:38:41.635Z,0
2022-10-01T04:39:41.591Z,0
2022-10-01T04:40:41.570Z,0
2022-10-01T04:41:41.565Z,0
2022-10-01T04:42:41.552Z,0
2022-10-01T04:43:41.537Z,0
2022-10-01T04:44:41.532Z,0
2022-10-01T04:45:41.516Z,0
2022-10-01T04:46:41.508Z,0
2022-10-01T04:47:41.505Z,0
2022-10-01T04:48:41.487Z,0
2022-10-01T04:49:41.475Z,0
2022-10-01T04:50:41.464Z,0
2022-10-01T04:51:41.457Z,0
2022-10-01T04:52:41.447Z,0
2022-10-01T04:53:41.429Z,0
2022-10-01T04:54:41.425Z,0
2022-10-01T04:55:41.412Z,0
2022-10-01T04:56:41.401Z,0
2022-10-01T04:57:41.401Z,0
2022-10-01T04:58:41.386Z,0
2022-10-01T04:59:41.364Z,0
2022-10-01T05:00:41.354Z,0
2022-10-01T05:01:41.347Z,0
2022-10-01T05:02:41.360Z,0
2022-10-01T05:03:41.326Z,0
2022-10-01T05:04:41.316Z,0
2022-10-01T05:05:41.308Z,0
2022-10-01T05:06:41.300Z,0
2022-10-01T05:07:41.282Z,0
2022-10-01T05:08:41.276Z,0
2022-10-01T05:09:41.263Z,0
2022-10-01T05:10:41.256Z,0
2022-10-01T05:11:41.239Z,0
2022-10-01T05:12:41.246Z,0
2022-10-01T05:13:41.223Z,0
2022-10-01T05:14:41.230Z,0
2022-10-01T05:15:41.208Z,0
2022-10-01T05:16:41.188Z,0
2022-10-01T05:17:41.187Z,0
2022-10-01T05:18:41.182Z,0
2022-10-01T05:19:41.193Z,0
2022-10-01T05:20:41.160Z,0
2022-10-01T05:21:41.166Z,0
2022-10-01T05:22:41.138Z,0
2022-10-01T05:23:41.130Z,0
2022-10-01T05:24:41.117Z,0
2022-10-01T05:25:41.108Z,0
2022-10-01T05:26:41.080Z,0
2022-10-01T05:27:41.113Z,0
2022-10-01T05:28:41.060Z,0
2022-10-01T05:29:41.049Z,0
2022-10-01T05:30:41.039Z,0
2022-10-01T05:31:41.035Z,0
2022-10-01T05:32:41.019Z,0
2022-10-01T05:33:41.019Z,0
2022-10-01T05:34:41.008Z,0
2022-10-01T05:35:40.987Z,0
2022-10-01T05:36:40.980Z,0
2022-10-01T05:37:40.965Z,0
2022-10-01T05:38:40.952Z,0
2022-10-01T05:39:40.955Z,0
2022-10-01T05:40:40.938Z,0
2022-10-01T05:41:40.930Z,0
2022-10-01T05:42:40.916Z,0
2022-10-01T05:43:40.897Z,0
2022-10-01T05:44:40.916Z,0
2022-10-01T05:45:40.893Z,0
2022-10-01T05:46:40.867Z,0
2022-10-01T05:47:40.861Z,0
2022-10-01T05:48:40.852Z,0
2022-10-01T05:49:40.841Z,0
2022-10-01T05:50:40.796Z,0
2022-10-01T05:51:40.849Z,0
2022-10-01T05:52:40.877Z,0
2022-10-01T05:53:40.761Z,0
2022-10-01T05:54:40.771Z,0
2022-10-01T05:55:40.737Z,0
2022-10-01T05:56:40.741Z,0
2022-10-01T05:57:40.744Z,0
2022-10-01T05:58:40.726Z,0
2022-10-01T05:59:40.699Z,0
2022-10-01T06:00:40.701Z,0
2022-10-01T06:01:40.673Z,0
2022-10-01T06:02:40.669Z,0
2022-10-01T06:03:40.665Z,0
2022-10-01T06:04:40.653Z,0
2022-10-01T06:05:40.637Z,0
2022-10-01T06:06:40.653Z,0
2022-10-01T06:07:40.611Z,0
2022-10-01T06:08:40.604Z,0
2022-10-01T06:09:40.594Z,0
2022-10-01T06:10:40.707Z,0
2022-10-01T06:11:40.579Z,0
2022-10-01T06:12:40.670Z,0
2022-10-01T06:13:40.583Z,0
2022-10-01T06:14:40.557Z,0
2022-10-01T06:15:40.551Z,0
2022-10-01T06:16:40.546Z,0
2022-10-01T06:17:40.520Z,0
2022-10-01T06:18:40.496Z,0
2022-10-01T06:19:40.483Z,0
2022-10-01T06:20:40.477Z,0
2022-10-01T06:21:40.468Z,0
2022-10-01T06:22:40.449Z,0
2022-10-01T06:23:40.444Z,0
2022-10-01T06:24:40.432Z,0
2022-10-01T06:25:40.422Z,0
2022-10-01T06:26:40.408Z,0
2022-10-01T06:27:40.406Z,0
2022-10-01T06:28:40.399Z,0
2022-10-01T06:29:40.397Z,0
2022-10-01T06:30:40.368Z,0
2022-10-01T06:31:40.394Z,0
2022-10-01T06:32:40.359Z,0
2022-10-01T06:33:40.338Z,0
2022-10-01T06:34:40.326Z,0
2022-10-01T06:35:40.353Z,0
2022-10-01T06:36:40.304Z,0
2022-10-01T06:37:40.295Z,0
2022-10-01T06:38:40.354Z,0
2022-10-01T06:39:40.289Z,0
2022-10-01T06:40:40.275Z,0
2022-10-01T06:41:40.250Z,0
2022-10-01T06:42:40.244Z,5.62
2022-10-01T06:43:40.231Z,5.62
2022-10-01T06:44:40.225Z,5.62
2022-10-01T06:45:40.221Z,5.62
2022-10-01T06:46:40.198Z,5.62
2022-10-01T06:47:40.188Z,5.62
2022-10-01T06:48:40.179Z,5.62
2022-10-01T06:49:40.164Z,5.62
2022-10-01T06:50:40.156Z,5.62
2022-10-01T06:51:40.150Z,5.62
2022-10-01T06:52:40.134Z,5.62
2022-10-01T06:53:40.120Z,5.62
2022-10-01T06:54:40.117Z,5.62
2022-10-01T06:55:40.102Z,5.62
2022-10-01T06:56:40.099Z,5.62
2022-10-01T06:57:40.094Z,5.62
2022-10-01T06:58:40.068Z,5.62
2022-10-01T06:59:40.068Z,5.62
2022-10-01T07:00:40.050Z,5.62
2022-10-01T07:01:40.034Z,5.62
2022-10-01T07:02:40.026Z,5.62
2022-10-01T07:03:40.027Z,11.25
2022-10-01T07:04:40.009Z,11.25
2022-10-01T07:05:39.997Z,11.25
2022-10-01T07:06:39.991Z,5.62
2022-10-01T07:07:39.982Z,5.62
2022-10-01T07:08:39.966Z,5.62
2022-10-01T07:09:39.958Z,5.62
2022-10-01T07:10:39.941Z,5.62
2022-10-01T07:11:39.934Z,5.62
2022-10-01T07:12:39.930Z,5.62
2022-10-01T07:13:39.906Z,5.62
2022-10-01T07:14:39.898Z,11.25
2022-10-01T07:15:39.900Z,11.25
2022-10-01T07:16:39.880Z,11.25
2022-10-01T07:17:39.875Z,16.88
2022-10-01T07:18:39.861Z,16.88
2022-10-01T07:19:39.843Z,16.88
2022-10-01T07:20:39.833Z,11.25
2022-10-01T07:21:39.834Z,11.25
2022-10-01T07:22:39.815Z,16.88
2022-10-01T07:23:39.812Z,11.25
2022-10-01T07:24:39.792Z,11.25
2022-10-01T07:25:39.786Z,11.25
2022-10-01T07:26:39.768Z,16.88
2022-10-01T07:27:39.762Z,11.25
2022-10-01T07:28:39.752Z,11.25
2022-10-01T07:29:39.741Z,11.25
2022-10-01T07:30:39.734Z,11.25
2022-10-01T07:31:39.721Z,11.25
2022-10-01T07:32:39.709Z,11.25
2022-10-01T07:33:39.699Z,11.25
2022-10-01T07:34:39.686Z,11.25
2022-10-01T07:35:39.676Z,11.25
2022-10-01T07:36:39.682Z,11.25
2022-10-01T07:37:39.661Z,16.88
2022-10-01T07:38:39.644Z,11.25
2022-10-01T07:39:39.634Z,11.25
2022-10-01T07:40:39.631Z,16.88
2022-10-01T07:41:39.615Z,16.88
2022-10-01T07:42:39.602Z,16.88
2022-10-01T07:43:39.592Z,22.5
2022-10-01T07:44:39.587Z,22.5
2022-10-01T07:45:39.568Z,28.12
2022-10-01T07:46:39.562Z,33.75
2022-10-01T07:47:39.551Z,39.38
2022-10-01T07:48:39.537Z,33.75
2022-10-01T07:49:39.527Z,33.75
2022-10-01T07:50:39.539Z,28.12
2022-10-01T07:51:39.552Z,22.5
2022-10-01T07:52:39.495Z,16.88
2022-10-01T07:53:40.519Z,28.12
2022-10-01T07:54:39.483Z,28.12
2022-10-01T07:55:39.468Z,28.12
2022-10-01T07:56:39.564Z,22.5
2022-10-01T07:57:39.490Z,22.5
2022-10-01T07:58:39.434Z,16.88
2022-10-01T07:59:39.432Z,16.88
2022-10-01T08:00:39.417Z,16.88
2022-10-01T08:01:39.412Z,16.88
2022-10-01T08:02:39.404Z,16.88
2022-10-01T08:03:39.390Z,16.88
2022-10-01T08:04:39.370Z,16.88
2022-10-01T08:05:39.362Z,16.88
2022-10-01T08:06:39.351Z,16.88
2022-10-01T08:07:39.352Z,11.25
2022-10-01T08:08:39.339Z,11.25
2022-10-01T08:09:39.325Z,11.25
2022-10-01T08:10:39.316Z,11.25
2022-10-01T08:11:39.306Z,11.25
2022-10-01T08:12:39.306Z,16.88
2022-10-01T08:13:39.290Z,16.88
2022-10-01T08:14:39.288Z,22.5
2022-10-01T08:15:39.291Z,28.12
2022-10-01T08:16:39.296Z,28.12
2022-10-01T08:17:39.239Z,28.12
2022-10-01T08:18:39.239Z,28.12
2022-10-01T08:19:39.232Z,22.5
2022-10-01T08:20:39.209Z,16.88
2022-10-01T08:21:39.195Z,16.88
2022-10-01T08:22:39.187Z,11.25
2022-10-01T08:23:39.180Z,11.25
2022-10-01T08:24:39.171Z,11.25
2022-10-01T08:25:39.159Z,11.25
2022-10-01T08:26:39.220Z,11.25
2022-10-01T08:27:39.135Z,16.88
2022-10-01T08:28:39.129Z,11.25
2022-10-01T08:29:39.111Z,16.88
2022-10-01T08:30:39.104Z,16.88
2022-10-01T08:31:39.106Z,16.88
2022-10-01T08:32:39.085Z,22.5
2022-10-01T08:33:39.067Z,22.5
2022-10-01T08:34:39.061Z,22.5
2022-10-01T08:35:39.050Z,28.12
2022-10-01T08:36:39.035Z,33.75
2022-10-01T08:37:39.026Z,28.12
2022-10-01T08:38:39.050Z,22.5
2022-10-01T08:39:39.043Z,11.25
2022-10-01T08:40:39.057Z,11.25
2022-10-01T08:41:38.982Z,16.88
2022-10-01T08:42:38.971Z,16.88
2022-10-01T08:43:38.962Z,16.88
2022-10-01T08:44:38.974Z,16.88
2022-10-01T08:45:38.953Z,16.88
2022-10-01T08:46:38.936Z,28.12
2022-10-01T08:47:38.925Z,45
2022-10-01T08:48:38.917Z,67.5
2022-10-01T08:49:38.900Z,73.12
2022-10-01T08:50:38.889Z,73.12
2022-10-01T08:51:38.875Z,56.25
2022-10-01T08:52:38.873Z,61.88
2022-10-01T08:53:38.860Z,61.88
2022-10-01T08:54:38.859Z,61.88
2022-10-01T08:55:38.857Z,67.5
2022-10-01T08:56:38.966Z,56.25
2022-10-01T08:57:38.812Z,33.75
2022-10-01T08:58:38.805Z,33.75
2022-10-01T08:59:38.818Z,33.75
2022-10-01T09:00:38.779Z,45
2022-10-01T09:01:38.773Z,73.12
2022-10-01T09:02:38.768Z,90
2022-10-01T09:03:38.797Z,95.62
2022-10-01T09:04:38.751Z,151.88
2022-10-01T09:05:38.726Z,191.25
2022-10-01T09:06:38.723Z,174.38
2022-10-01T09:07:38.714Z,140.62
2022-10-01T09:08:38.703Z,146.25
2022-10-01T09:09:39.195Z,174.38
2022-10-01T09:10:38.737Z,191.25
2022-10-01T09:11:38.670Z,191.25
2022-10-01T09:12:38.652Z,163.12
2022-10-01T09:13:38.680Z,157.5
2022-10-01T09:14:38.636Z,174.38
2022-10-01T09:15:38.618Z,146.25
2022-10-01T09:16:38.612Z,123.75
2022-10-01T09:17:38.600Z,73.12
2022-10-01T09:18:38.602Z,90
2022-10-01T09:19:38.581Z,140.62
2022-10-01T09:20:38.580Z,140.62
2022-10-01T09:21:38.559Z,151.88
2022-10-01T09:22:38.553Z,146.25
2022-10-01T09:23:38.536Z,140.62
2022-10-01T09:24:38.528Z,118.12
2022-10-01T09:25:38.529Z,129.38
2022-10-01T09:26:38.508Z,112.5
2022-10-01T09:27:38.494Z,90
2022-10-01T09:28:38.487Z,78.75
2022-10-01T09:29:38.507Z,73.12
2022-10-01T09:30:38.473Z,73.12
2022-10-01T09:31:38.449Z,67.5
2022-10-01T09:32:38.437Z,67.5
2022-10-01T09:33:38.443Z,73.12
2022-10-01T09:34:38.416Z,73.12
2022-10-01T09:35:38.411Z,67.5
2022-10-01T09:36:38.401Z,67.5
2022-10-01T09:37:38.404Z,61.88
2022-10-01T09:38:38.379Z,50.62
2022-10-01T09:39:38.384Z,50.62
2022-10-01T09:40:38.367Z,45
2022-10-01T09:41:38.344Z,50.62
2022-10-01T09:42:38.337Z,50.62
2022-10-01T09:43:38.347Z,45
2022-10-01T09:44:38.346Z,45
2022-10-01T09:45:38.312Z,39.38
2022-10-01T09:46:38.300Z,28.12
2022-10-01T09:47:38.341Z,28.12
2022-10-01T09:48:38.305Z,28.12
2022-10-01T09:49:38.272Z,28.12
2022-10-01T09:50:38.259Z,39.38
2022-10-01T09:51:38.265Z,45
2022-10-01T09:52:38.247Z,50.62
2022-10-01T09:53:38.232Z,45
2022-10-01T09:54:38.206Z,50.62
2022-10-01T09:55:38.213Z,67.5
2022-10-01T09:56:38.218Z,56.25
2022-10-01T09:57:38.176Z,50.62
2022-10-01T09:58:38.169Z,45
2022-10-01T09:59:38.154Z,45
2022-10-01T10:00:38.142Z,39.38
2022-10-01T10:01:38.145Z,39.38
2022-10-01T10:02:38.131Z,39.38
2022-10-01T10:03:38.113Z,39.38
2022-10-01T10:04:38.172Z,33.75
2022-10-01T10:05:38.087Z,39.38
2022-10-01T10:06:38.081Z,45
2022-10-01T10:07:38.133Z,45
2022-10-01T10:08:38.059Z,56.25
2022-10-01T10:09:38.064Z,56.25
2022-10-01T10:10:38.036Z,61.88
2022-10-01T10:11:38.032Z,61.88
2022-10-01T10:12:38.025Z,67.5
2022-10-01T10:13:38.024Z,73.12
2022-10-01T10:14:38.020Z,78.75
2022-10-01T10:15:37.987Z,78.75
2022-10-01T10:16:37.989Z,90
2022-10-01T10:17:37.961Z,101.25
2022-10-01T10:18:37.977Z,101.25
2022-10-01T10:19:37.943Z,112.5
2022-10-01T10:20:37.930Z,112.5
2022-10-01T10:21:37.918Z,101.25
2022-10-01T10:22:37.907Z,78.75
2022-10-01T10:23:37.899Z,73.12
2022-10-01T10:24:37.887Z,73.12
2022-10-01T10:25:37.886Z,73.12
2022-10-01T10:26:37.865Z,73.12
2022-10-01T10:27:37.864Z,73.12
2022-10-01T10:28:37.846Z,73.12
2022-10-01T10:29:37.839Z,73.12
2022-10-01T10:30:37.823Z,84.38
2022-10-01T10:31:37.808Z,95.62
2022-10-01T10:32:37.802Z,101.25
2022-10-01T10:33:37.790Z,101.25
2022-10-01T10:34:37.779Z,101.25
2022-10-01T10:35:37.799Z,101.25
2022-10-01T10:36:37.766Z,101.25
2022-10-01T10:37:37.754Z,95.62
2022-10-01T10:38:37.742Z,95.62
2022-10-01T10:39:37.735Z,129.38
2022-10-01T10:40:37.755Z,180
2022-10-01T10:41:37.707Z,180
2022-10-01T10:42:37.696Z,157.5
2022-10-01T10:43:37.688Z,202.5
2022-10-01T10:44:37.678Z,461.25
2022-10-01T10:45:37.671Z,343.12
2022-10-01T10:46:37.663Z,427.5
2022-10-01T10:47:37.665Z,691.88
2022-10-01T10:48:37.651Z,1895.62
2022-10-01T10:49:37.649Z,444.38
2022-10-01T10:50:37.618Z,365.62
2022-10-01T10:51:37.624Z,883.12
2022-10-01T10:52:37.600Z,1518.75
2022-10-01T10:53:37.588Z,1732.5
2022-10-01T10:54:37.580Z,933.75
2022-10-01T10:55:37.557Z,1507.5
2022-10-01T10:56:37.573Z,601.88
2022-10-01T10:57:37.536Z,241.88
2022-10-01T10:58:37.560Z,185.62
2022-10-01T10:59:37.587Z,163.12
2022-10-01T11:00:37.551Z,146.25
2022-10-01T11:01:37.497Z,225
2022-10-01T11:02:37.484Z,354.38
2022-10-01T11:03:37.472Z,635.62
2022-10-01T11:04:37.498Z,388.12
2022-10-01T11:05:37.457Z,354.38
2022-10-01T11:06:37.443Z,798.75
2022-10-01T11:07:37.659Z,416.25
2022-10-01T11:08:37.458Z,180
2022-10-01T11:09:37.413Z,135
2022-10-01T11:10:37.397Z,241.88
2022-10-01T11:11:37.388Z,556.88
2022-10-01T11:12:37.376Z,253.12
2022-10-01T11:13:37.368Z,1625.62
2022-10-01T11:14:37.374Z,444.38
2022-10-01T11:15:37.347Z,433.12
2022-10-01T11:16:37.369Z,157.5
2022-10-01T11:17:37.327Z,241.88
2022-10-01T11:18:37.331Z,270
2022-10-01T11:19:37.305Z,849.38
2022-10-01T11:20:37.325Z,888.75
2022-10-01T11:21:37.302Z,343.12
2022-10-01T11:22:37.275Z,309.38
2022-10-01T11:23:37.270Z,410.62
2022-10-01T11:24:37.254Z,247.5
2022-10-01T11:25:37.240Z,264.38
2022-10-01T11:26:37.228Z,601.88
2022-10-01T11:27:37.367Z,388.12
2022-10-01T11:28:37.241Z,585
2022-10-01T11:29:37.197Z,939.38
2022-10-01T11:30:37.203Z,202.5
2022-10-01T11:31:37.183Z,174.38
2022-10-01T11:32:37.167Z,174.38
2022-10-01T11:33:37.164Z,596.25
2022-10-01T11:34:37.219Z,450
2022-10-01T11:35:37.147Z,444.38
2022-10-01T11:36:37.126Z,1676.25
2022-10-01T11:37:37.306Z,410.62
2022-10-01T11:38:37.296Z,348.75
2022-10-01T11:39:37.160Z,258.75
2022-10-01T11:40:37.097Z,585
2022-10-01T11:41:37.076Z,714.38
2022-10-01T11:42:37.099Z,225
2022-10-01T11:43:37.076Z,168.75
2022-10-01T11:44:37.045Z,264.38
2022-10-01T11:45:37.039Z,315
2022-10-01T11:46:37.026Z,793.12
2022-10-01T11:47:37.013Z,202.5
2022-10-01T11:48:37.008Z,191.25
2022-10-01T11:49:36.999Z,281.25
2022-10-01T11:50:36.983Z,382.5
2022-10-01T11:51:36.971Z,331.88
2022-10-01T11:52:36.958Z,230.62
2022-10-01T11:53:36.948Z,337.5
2022-10-01T11:54:36.940Z,506.25
2022-10-01T11:55:36.924Z,191.25
2022-10-01T11:56:37.700Z,140.62
2022-10-01T11:57:36.903Z,168.75
2022-10-01T11:58:36.902Z,298.12
2022-10-01T11:59:36.936Z,1771.88
2022-10-01T12:00:36.896Z,1890
2022-10-01T12:01:36.869Z,1316.25
2022-10-01T12:02:36.944Z,326.25
2022-10-01T12:03:36.846Z,292.5
2022-10-01T12:04:36.845Z,1518.75
2022-10-01T12:05:36.824Z,174.38
2022-10-01T12:06:36.815Z,247.5
2022-10-01T12:07:36.800Z,213.75
2022-10-01T12:08:36.790Z,185.62
2022-10-01T12:09:36.784Z,219.38
2022-10-01T12:10:36.789Z,258.75
2022-10-01T12:11:36.758Z,618.75
2022-10-01T12:12:36.787Z,1957.5
2022-10-01T12:13:36.740Z,1946.25
2022-10-01T12:14:36.730Z,658.12
2022-10-01T12:15:36.718Z,1316.25
2022-10-01T12:16:36.716Z,1856.25
2022-10-01T12:17:44.423Z,2025
2022-10-01T12:18:36.697Z,399.38
2022-10-01T12:19:36.699Z,1338.75
2022-10-01T12:20:36.673Z,1670.62
2022-10-01T12:21:36.658Z,292.5
2022-10-01T12:22:36.658Z,230.62
2022-10-01T12:23:36.632Z,168.75
2022-10-01T12:24:36.663Z,135
2022-10-01T12:25:36.617Z,118.12
2022-10-01T12:26:36.601Z,123.75
2022-10-01T12:27:36.694Z,123.75
2022-10-01T12:28:36.594Z,140.62
2022-10-01T12:29:36.586Z,196.88
2022-10-01T12:30:36.560Z,303.75
2022-10-01T12:31:36.560Z,326.25
2022-10-01T12:32:39.263Z,669.38
2022-10-01T12:33:36.531Z,236.25
2022-10-01T12:34:36.524Z,157.5
2022-10-01T12:35:36.534Z,140.62
2022-10-01T12:36:36.513Z,258.75
2022-10-01T12:37:36.527Z,118.12
2022-10-01T12:38:36.492Z,73.12
2022-10-01T12:39:36.472Z,56.25
2022-10-01T12:40:36.474Z,50.62
2022-10-01T12:41:36.451Z,50.62
2022-10-01T12:42:36.436Z,50.62
2022-10-01T12:43:36.431Z,45
2022-10-01T12:44:36.433Z,50.62
2022-10-01T12:45:36.412Z,50.62
2022-10-01T12:46:36.417Z,56.25
2022-10-01T12:47:36.407Z,61.88
2022-10-01T12:48:36.392Z,73.12
2022-10-01T12:49:36.364Z,84.38
2022-10-01T12:50:36.354Z,118.12
2022-10-01T12:51:36.343Z,225
2022-10-01T12:52:36.399Z,270
2022-10-01T12:53:36.317Z,213.75
2022-10-01T12:54:36.317Z,185.62
2022-10-01T12:55:36.348Z,146.25
2022-10-01T12:56:36.288Z,168.75
2022-10-01T12:57:36.280Z,140.62
2022-10-01T12:58:36.278Z,123.75
2022-10-01T12:59:36.257Z,140.62
2022-10-01T13:00:36.271Z,129.38
2022-10-01T13:01:36.300Z,112.5
2022-10-01T13:02:36.244Z,151.88
2022-10-01T13:03:36.212Z,202.5
2022-10-01T13:04:36.308Z,157.5
2022-10-01T13:05:36.262Z,270
2022-10-01T13:06:36.179Z,275.62
2022-10-01T13:07:36.205Z,236.25
2022-10-01T13:08:36.166Z,236.25
2022-10-01T13:09:36.160Z,208.12
2022-10-01T13:10:36.170Z,174.38
2022-10-01T13:11:36.149Z,174.38
2022-10-01T13:12:36.120Z,168.75
2022-10-01T13:13:36.108Z,174.38
2022-10-01T13:14:36.092Z,180
2022-10-01T13:15:36.085Z,191.25
2022-10-01T13:16:36.082Z,140.62
2022-10-01T13:17:36.062Z,174.38
2022-10-01T13:18:36.062Z,163.12
2022-10-01T13:19:36.045Z,163.12
2022-10-01T13:20:36.046Z,151.88
2022-10-01T13:21:36.023Z,151.88
2022-10-01T13:22:36.031Z,146.25
2022-10-01T13:23:35.997Z,140.62
2022-10-01T13:24:35.993Z,146.25
2022-10-01T13:25:35.983Z,135
2022-10-01T13:26:35.966Z,129.38
2022-10-01T13:27:35.960Z,129.38
2022-10-01T13:28:35.955Z,123.75
2022-10-01T13:29:35.938Z,123.75
2022-10-01T13:30:35.928Z,129.38
2022-10-01T13:31:35.958Z,129.38
2022-10-01T13:32:35.927Z,129.38
2022-10-01T13:33:35.917Z,135
2022-10-01T13:34:35.896Z,135
2022-10-01T13:35:35.873Z,135
2022-10-01T13:36:35.860Z,157.5
2022-10-01T13:37:35.853Z,140.62
2022-10-01T13:38:35.879Z,118.12
2022-10-01T13:39:35.831Z,101.25
2022-10-01T13:40:35.820Z,129.38
2022-10-01T13:41:35.807Z,168.75
2022-10-01T13:42:35.797Z,174.38
2022-10-01T13:43:35.787Z,168.75